sensor_id;sensor_type;location;lat;lon;timestamp;temperature;humidity
45983;DHT22;31711;47.158;7.346;2023-05-20T00:01:28;12.80;99.90
45983;DHT22;31711;47.158;7.346;2023-05-20T00:03:54;12.80;99.90
45983;DHT22;31711;47.158;7.346;2023-05-20T00:06:20;12.90;99.90
45983;DHT22;31711;47.158;7.346;2023-05-20T00:08:46;12.90;99.90
45983;DHT22;31711;47.158;7.346;2023-05-20T00:11:12;12.90;99.90
45983;DHT22;31711;47.158;7.346;2023-05-20T00:13:38;12.90;99.90
45983;DHT22;31711;47.158;7.346;2023-05-20T00:16:04;12.90;99.90
45983;DHT22;31711;47.158;7.346;2023-05-20T00:18:30;12.90;99.90
45983;DHT22;31711;47.158;7.346;2023-05-20T00:20:57;12.90;99.90
45983;DHT22;31711;47.158;7.346;2023-05-20T00:23:23;12.90;99.90
45983;DHT22;31711;47.158;7.346;2023-05-20T00:25:49;12.90;99.90
45983;DHT22;31711;47.158;7.346;2023-05-20T00:28:15;12.90;99.90
45983;DHT22;31711;47.158;7.346;2023-05-20T00:30:41;12.80;99.90
45983;DHT22;31711;47.158;7.346;2023-05-20T00:33:08;12.70;99.90
45983;DHT22;31711;47.158;7.346;2023-05-20T00:35:34;12.70;99.90
45983;DHT22;31711;47.158;7.346;2023-05-20T00:38:00;12.60;99.90
45983;DHT22;31711;47.158;7.346;2023-05-20T00:40:26;12.60;99.90
45983;DHT22;31711;47.158;7.346;2023-05-20T00:42:52;12.60;99.90
45983;DHT22;31711;47.158;7.346;2023-05-20T00:45:17;12.50;99.90
45983;DHT22;31711;47.158;7.346;2023-05-20T00:47:44;12.50;99.90
45983;DHT22;31711;47.158;7.346;2023-05-20T00:50:10;12.50;99.90
45983;DHT22;31711;47.158;7.346;2023-05-20T00:52:36;12.50;99.90
45983;DHT22;31711;47.158;7.346;2023-05-20T00:55:03;12.50;99.90
45983;DHT22;31711;47.158;7.346;2023-05-20T00:57:29;12.50;99.90
45983;DHT22;31711;47.158;7.346;2023-05-20T00:59:55;12.50;99.90
45983;DHT22;31711;47.158;7.346;2023-05-20T01:02:22;12.50;99.90
45983;DHT22;31711;47.158;7.346;2023-05-20T01:04:48;12.50;99.90
45983;DHT22;31711;47.158;7.346;2023-05-20T01:07:15;12.50;99.90
45983;DHT22;31711;47.158;7.346;2023-05-20T01:09:42;12.60;99.90
45983;DHT22;31711;47.158;7.346;2023-05-20T01:12:12;12.60;99.90
45983;DHT22;31711;47.158;7.346;2023-05-20T01:14:47;12.70;99.90
45983;DHT22;31711;47.158;7.346;2023-05-20T01:17:15;12.60;99.90
45983;DHT22;31711;47.158;7.346;2023-05-20T01:19:46;12.60;99.90
45983;DHT22;31711;47.158;7.346;2023-05-20T01:22:14;12.60;99.90
45983;DHT22;31711;47.158;7.346;2023-05-20T01:24:44;12.60;99.90
45983;DHT22;31711;47.158;7.346;2023-05-20T01:27:13;12.50;99.90
45983;DHT22;31711;47.158;7.346;2023-05-20T01:29:40;12.40;99.90
45983;DHT22;31711;47.158;7.346;2023-05-20T01:32:28;12.40;99.90
45983;DHT22;31711;47.158;7.346;2023-05-20T01:34:57;12.30;99.90
45983;DHT22;31711;47.158;7.346;2023-05-20T01:37:25;12.30;99.90
45983;DHT22;31711;47.158;7.346;2023-05-20T01:39:52;12.40;99.90
45983;DHT22;31711;47.158;7.346;2023-05-20T01:42:19;12.40;99.90
45983;DHT22;31711;47.158;7.346;2023-05-20T01:44:45;12.40;99.90
45983;DHT22;31711;47.158;7.346;2023-05-20T01:47:12;12.50;99.90
45983;DHT22;31711;47.158;7.346;2023-05-20T01:49:38;12.40;99.90
45983;DHT22;31711;47.158;7.346;2023-05-20T01:52:04;12.40;99.90
45983;DHT22;31711;47.158;7.346;2023-05-20T01:54:31;12.40;99.90
45983;DHT22;31711;47.158;7.346;2023-05-20T01:56:57;12.40;99.90
45983;DHT22;31711;47.158;7.346;2023-05-20T01:59:22;12.40;99.90
45983;DHT22;31711;47.158;7.346;2023-05-20T02:01:48;12.30;99.90
45983;DHT22;31711;47.158;7.346;2023-05-20T02:04:14;12.30;99.90
45983;DHT22;31711;47.158;7.346;2023-05-20T02:06:40;12.30;99.90
45983;DHT22;31711;47.158;7.346;2023-05-20T02:09:06;12.30;99.90
45983;DHT22;31711;47.158;7.346;2023-05-20T02:11:33;12.30;99.90
45983;DHT22;31711;47.158;7.346;2023-05-20T02:13:58;12.30;99.90
45983;DHT22;31711;47.158;7.346;2023-05-20T02:16:24;12.30;99.90
45983;DHT22;31711;47.158;7.346;2023-05-20T02:18:50;12.20;99.90
45983;DHT22;31711;47.158;7.346;2023-05-20T02:21:17;12.30;99.90
45983;DHT22;31711;47.158;7.346;2023-05-20T02:23:43;12.20;99.90
45983;DHT22;31711;47.158;7.346;2023-05-20T02:26:10;12.30;99.90
45983;DHT22;31711;47.158;7.346;2023-05-20T02:28:36;12.30;99.90
45983;DHT22;31711;47.158;7.346;2023-05-20T02:31:05;12.30;99.90
45983;DHT22;31711;47.158;7.346;2023-05-20T02:33:31;12.30;99.90
45983;DHT22;31711;47.158;7.346;2023-05-20T02:35:58;12.30;99.90
45983;DHT22;31711;47.158;7.346;2023-05-20T02:38:24;12.30;99.90
45983;DHT22;31711;47.158;7.346;2023-05-20T02:40:50;12.30;99.90
45983;DHT22;31711;47.158;7.346;2023-05-20T02:43:16;12.30;99.90
45983;DHT22;31711;47.158;7.346;2023-05-20T02:45:42;12.30;99.90
45983;DHT22;31711;47.158;7.346;2023-05-20T02:48:08;12.30;99.90
45983;DHT22;31711;47.158;7.346;2023-05-20T02:50:37;12.30;99.90
45983;DHT22;31711;47.158;7.346;2023-05-20T02:53:03;12.30;99.90
45983;DHT22;31711;47.158;7.346;2023-05-20T02:55:33;12.30;99.90
45983;DHT22;31711;47.158;7.346;2023-05-20T02:57:59;12.30;99.90
45983;DHT22;31711;47.158;7.346;2023-05-20T03:00:25;12.30;99.90
45983;DHT22;31711;47.158;7.346;2023-05-20T03:02:53;12.20;99.90
45983;DHT22;31711;47.158;7.346;2023-05-20T03:05:19;12.30;99.90
45983;DHT22;31711;47.158;7.346;2023-05-20T03:07:46;12.20;99.90
45983;DHT22;31711;47.158;7.346;2023-05-20T03:10:13;12.20;99.90
45983;DHT22;31711;47.158;7.346;2023-05-20T03:12:40;12.30;99.90
45983;DHT22;31711;47.158;7.346;2023-05-20T03:15:06;12.20;99.90
45983;DHT22;31711;47.158;7.346;2023-05-20T03:17:32;12.20;99.90
45983;DHT22;31711;47.158;7.346;2023-05-20T03:19:59;12.20;99.90
45983;DHT22;31711;47.158;7.346;2023-05-20T03:22:26;12.20;99.90
45983;DHT22;31711;47.158;7.346;2023-05-20T03:24:52;12.20;99.90
45983;DHT22;31711;47.158;7.346;2023-05-20T03:27:18;12.20;99.90
45983;DHT22;31711;47.158;7.346;2023-05-20T03:29:44;12.10;99.90
45983;DHT22;31711;47.158;7.346;2023-05-20T03:32:10;12.10;99.90
45983;DHT22;31711;47.158;7.346;2023-05-20T03:34:36;12.10;99.90
45983;DHT22;31711;47.158;7.346;2023-05-20T03:37:02;12.00;99.90
45983;DHT22;31711;47.158;7.346;2023-05-20T03:39:28;12.00;99.90
45983;DHT22;31711;47.158;7.346;2023-05-20T03:41:54;12.00;99.90
45983;DHT22;31711;47.158;7.346;2023-05-20T03:44:20;11.90;99.90
45983;DHT22;31711;47.158;7.346;2023-05-20T03:46:46;11.90;99.90
45983;DHT22;31711;47.158;7.346;2023-05-20T03:49:12;11.90;99.90
45983;DHT22;31711;47.158;7.346;2023-05-20T03:51:38;11.90;99.90
45983;DHT22;31711;47.158;7.346;2023-05-20T03:54:04;12.00;99.90
45983;DHT22;31711;47.158;7.346;2023-05-20T03:56:30;12.00;99.90
45983;DHT22;31711;47.158;7.346;2023-05-20T03:58:56;12.00;99.90
45983;DHT22;31711;47.158;7.346;2023-05-20T04:01:22;12.00;99.90
45983;DHT22;31711;47.158;7.346;2023-05-20T04:03:50;12.00;99.90
45983;DHT22;31711;47.158;7.346;2023-05-20T04:06:16;12.10;99.90
45983;DHT22;31711;47.158;7.346;2023-05-20T04:08:42;12.10;99.90
45983;DHT22;31711;47.158;7.346;2023-05-20T04:11:08;12.20;99.90
45983;DHT22;31711;47.158;7.346;2023-05-20T04:13:34;12.20;99.90
45983;DHT22;31711;47.158;7.346;2023-05-20T04:16:00;12.20;99.90
45983;DHT22;31711;47.158;7.346;2023-05-20T04:18:26;12.20;99.90
45983;DHT22;31711;47.158;7.346;2023-05-20T04:20:56;12.30;99.90
45983;DHT22;31711;47.158;7.346;2023-05-20T04:23:22;12.30;99.90
45983;DHT22;31711;47.158;7.346;2023-05-20T04:25:48;12.30;99.90
45983;DHT22;31711;47.158;7.346;2023-05-20T04:28:14;12.40;99.90
45983;DHT22;31711;47.158;7.346;2023-05-20T04:30:41;12.40;99.90
45983;DHT22;31711;47.158;7.346;2023-05-20T04:33:07;12.30;99.90
45983;DHT22;31711;47.158;7.346;2023-05-20T04:35:33;12.30;99.90
45983;DHT22;31711;47.158;7.346;2023-05-20T04:38:00;12.40;99.90
45983;DHT22;31711;47.158;7.346;2023-05-20T04:40:26;12.50;99.90
45983;DHT22;31711;47.158;7.346;2023-05-20T04:42:53;12.40;99.90
45983;DHT22;31711;47.158;7.346;2023-05-20T04:45:20;12.40;99.90
45983;DHT22;31711;47.158;7.346;2023-05-20T04:47:47;12.50;99.90
45983;DHT22;31711;47.158;7.346;2023-05-20T04:50:13;12.60;99.90
45983;DHT22;31711;47.158;7.346;2023-05-20T04:52:40;12.60;99.90
45983;DHT22;31711;47.158;7.346;2023-05-20T04:55:11;12.50;99.90
45983;DHT22;31711;47.158;7.346;2023-05-20T04:57:38;12.60;99.90
45983;DHT22;31711;47.158;7.346;2023-05-20T05:00:10;12.70;99.90
45983;DHT22;31711;47.158;7.346;2023-05-20T05:02:37;12.80;99.90
45983;DHT22;31711;47.158;7.346;2023-05-20T05:05:03;12.70;99.90
45983;DHT22;31711;47.158;7.346;2023-05-20T05:07:30;12.70;99.90
45983;DHT22;31711;47.158;7.346;2023-05-20T05:09:56;12.70;99.90
45983;DHT22;31711;47.158;7.346;2023-05-20T05:12:21;12.80;99.90
45983;DHT22;31711;47.158;7.346;2023-05-20T05:14:47;12.80;99.90
45983;DHT22;31711;47.158;7.346;2023-05-20T05:17:13;12.80;99.90
45983;DHT22;31711;47.158;7.346;2023-05-20T05:19:39;12.70;99.90
45983;DHT22;31711;47.158;7.346;2023-05-20T05:22:05;12.60;99.90
45983;DHT22;31711;47.158;7.346;2023-05-20T05:24:31;12.60;99.90
45983;DHT22;31711;47.158;7.346;2023-05-20T05:26:57;12.60;99.90
45983;DHT22;31711;47.158;7.346;2023-05-20T05:29:23;12.50;99.90
45983;DHT22;31711;47.158;7.346;2023-05-20T05:31:49;12.50;99.90
45983;DHT22;31711;47.158;7.346;2023-05-20T05:34:15;12.50;99.90
45983;DHT22;31711;47.158;7.346;2023-05-20T05:36:41;12.60;99.90
45983;DHT22;31711;47.158;7.346;2023-05-20T05:39:07;12.60;99.90
45983;DHT22;31711;47.158;7.346;2023-05-20T05:41:33;12.50;99.90
45983;DHT22;31711;47.158;7.346;2023-05-20T05:43:59;12.50;99.90
45983;DHT22;31711;47.158;7.346;2023-05-20T05:46:25;12.60;99.90
45983;DHT22;31711;47.158;7.346;2023-05-20T05:48:51;12.70;99.90
45983;DHT22;31711;47.158;7.346;2023-05-20T05:51:17;12.70;99.90
45983;DHT22;31711;47.158;7.346;2023-05-20T05:53:43;12.70;99.90
45983;DHT22;31711;47.158;7.346;2023-05-20T05:56:09;12.80;99.90
45983;DHT22;31711;47.158;7.346;2023-05-20T05:58:36;12.90;99.90
45983;DHT22;31711;47.158;7.346;2023-05-20T06:01:02;12.80;99.90
45983;DHT22;31711;47.158;7.346;2023-05-20T06:03:28;12.80;99.90
45983;DHT22;31711;47.158;7.346;2023-05-20T06:05:55;12.80;99.90
45983;DHT22;31711;47.158;7.346;2023-05-20T06:08:21;12.90;99.90
45983;DHT22;31711;47.158;7.346;2023-05-20T06:10:51;12.90;99.90
45983;DHT22;31711;47.158;7.346;2023-05-20T06:13:17;12.80;99.90
45983;DHT22;31711;47.158;7.346;2023-05-20T06:15:43;12.80;99.90
45983;DHT22;31711;47.158;7.346;2023-05-20T06:18:11;12.90;99.90
45983;DHT22;31711;47.158;7.346;2023-05-20T06:20:37;12.90;99.90
45983;DHT22;31711;47.158;7.346;2023-05-20T06:23:03;13.00;99.90
45983;DHT22;31711;47.158;7.346;2023-05-20T06:25:29;13.00;99.90
45983;DHT22;31711;47.158;7.346;2023-05-20T06:27:55;13.10;99.90
45983;DHT22;31711;47.158;7.346;2023-05-20T06:30:21;13.10;99.90
45983;DHT22;31711;47.158;7.346;2023-05-20T06:32:47;13.10;99.90
45983;DHT22;31711;47.158;7.346;2023-05-20T06:35:13;13.10;99.90
45983;DHT22;31711;47.158;7.346;2023-05-20T06:37:39;13.30;99.90
45983;DHT22;31711;47.158;7.346;2023-05-20T06:40:06;13.30;99.90
45983;DHT22;31711;47.158;7.346;2023-05-20T06:42:32;13.30;99.90
45983;DHT22;31711;47.158;7.346;2023-05-20T06:44:58;13.40;99.90
45983;DHT22;31711;47.158;7.346;2023-05-20T06:47:24;13.40;99.90
45983;DHT22;31711;47.158;7.346;2023-05-20T06:49:50;13.20;99.90
45983;DHT22;31711;47.158;7.346;2023-05-20T06:52:16;13.10;99.90
45983;DHT22;31711;47.158;7.346;2023-05-20T06:54:42;13.10;99.90
45983;DHT22;31711;47.158;7.346;2023-05-20T06:57:08;13.10;99.90
45983;DHT22;31711;47.158;7.346;2023-05-20T06:59:35;13.30;99.90
45983;DHT22;31711;47.158;7.346;2023-05-20T07:02:02;13.30;99.90
45983;DHT22;31711;47.158;7.346;2023-05-20T07:04:28;13.40;99.90
45983;DHT22;31711;47.158;7.346;2023-05-20T07:06:54;13.40;99.90
45983;DHT22;31711;47.158;7.346;2023-05-20T07:09:20;13.40;99.90
45983;DHT22;31711;47.158;7.346;2023-05-20T07:11:46;13.50;99.90
45983;DHT22;31711;47.158;7.346;2023-05-20T07:14:12;13.50;99.90
45983;DHT22;31711;47.158;7.346;2023-05-20T07:16:38;13.50;99.90
45983;DHT22;31711;47.158;7.346;2023-05-20T07:19:04;13.50;99.90
45983;DHT22;31711;47.158;7.346;2023-05-20T07:21:30;13.50;99.90
45983;DHT22;31711;47.158;7.346;2023-05-20T07:23:56;13.60;99.90
45983;DHT22;31711;47.158;7.346;2023-05-20T07:26:22;13.70;99.90
45983;DHT22;31711;47.158;7.346;2023-05-20T07:28:48;13.70;99.90
45983;DHT22;31711;47.158;7.346;2023-05-20T07:31:14;13.60;99.90
45983;DHT22;31711;47.158;7.346;2023-05-20T07:33:41;13.70;99.90
45983;DHT22;31711;47.158;7.346;2023-05-20T07:36:07;13.70;99.90
45983;DHT22;31711;47.158;7.346;2023-05-20T07:38:33;13.70;99.90
45983;DHT22;31711;47.158;7.346;2023-05-20T07:40:59;13.80;99.90
45983;DHT22;31711;47.158;7.346;2023-05-20T07:43:25;14.10;99.90
45983;DHT22;31711;47.158;7.346;2023-05-20T07:45:51;14.10;99.90
45983;DHT22;31711;47.158;7.346;2023-05-20T07:48:17;14.00;99.90
45983;DHT22;31711;47.158;7.346;2023-05-20T07:50:43;13.90;99.90
45983;DHT22;31711;47.158;7.346;2023-05-20T07:53:09;13.90;99.90
45983;DHT22;31711;47.158;7.346;2023-05-20T07:55:35;14.10;99.90
45983;DHT22;31711;47.158;7.346;2023-05-20T07:58:02;14.00;99.90
45983;DHT22;31711;47.158;7.346;2023-05-20T08:00:28;14.20;99.90
45983;DHT22;31711;47.158;7.346;2023-05-20T08:02:54;14.30;99.90
45983;DHT22;31711;47.158;7.346;2023-05-20T08:05:20;14.40;99.90
45983;DHT22;31711;47.158;7.346;2023-05-20T08:07:47;14.50;99.90
45983;DHT22;31711;47.158;7.346;2023-05-20T08:10:13;14.40;99.90
45983;DHT22;31711;47.158;7.346;2023-05-20T08:12:39;14.40;99.90
45983;DHT22;31711;47.158;7.346;2023-05-20T08:15:05;14.40;99.90
45983;DHT22;31711;47.158;7.346;2023-05-20T08:17:32;14.40;99.90
45983;DHT22;31711;47.158;7.346;2023-05-20T08:19:58;14.40;99.90
45983;DHT22;31711;47.158;7.346;2023-05-20T08:22:24;14.50;99.90
45983;DHT22;31711;47.158;7.346;2023-05-20T08:24:50;14.60;99.90
45983;DHT22;31711;47.158;7.346;2023-05-20T08:27:16;14.60;99.90
45983;DHT22;31711;47.158;7.346;2023-05-20T08:29:43;14.70;99.90
45983;DHT22;31711;47.158;7.346;2023-05-20T08:32:10;14.60;99.90
45983;DHT22;31711;47.158;7.346;2023-05-20T08:34:36;14.50;99.90
45983;DHT22;31711;47.158;7.346;2023-05-20T08:37:02;14.70;99.90
45983;DHT22;31711;47.158;7.346;2023-05-20T08:39:28;14.70;99.90
45983;DHT22;31711;47.158;7.346;2023-05-20T08:41:54;14.70;99.90
45983;DHT22;31711;47.158;7.346;2023-05-20T08:44:20;14.80;99.90
45983;DHT22;31711;47.158;7.346;2023-05-20T08:46:47;14.80;99.90
45983;DHT22;31711;47.158;7.346;2023-05-20T08:49:14;14.80;99.90
45983;DHT22;31711;47.158;7.346;2023-05-20T08:51:40;14.80;99.90
45983;DHT22;31711;47.158;7.346;2023-05-20T08:54:08;14.70;99.90
45983;DHT22;31711;47.158;7.346;2023-05-20T08:56:36;14.70;99.90
45983;DHT22;31711;47.158;7.346;2023-05-20T08:59:04;14.80;99.90
45983;DHT22;31711;47.158;7.346;2023-05-20T09:01:31;15.00;99.90
45983;DHT22;31711;47.158;7.346;2023-05-20T09:03:58;15.00;99.90
45983;DHT22;31711;47.158;7.346;2023-05-20T09:06:24;15.10;99.90
45983;DHT22;31711;47.158;7.346;2023-05-20T09:08:50;15.20;99.90
45983;DHT22;31711;47.158;7.346;2023-05-20T09:11:16;15.20;99.90
45983;DHT22;31711;47.158;7.346;2023-05-20T09:13:42;15.30;99.90
45983;DHT22;31711;47.158;7.346;2023-05-20T09:16:09;15.20;99.90
45983;DHT22;31711;47.158;7.346;2023-05-20T09:18:39;15.20;99.90
45983;DHT22;31711;47.158;7.346;2023-05-20T09:21:05;15.20;99.90
45983;DHT22;31711;47.158;7.346;2023-05-20T09:23:32;15.40;99.90
45983;DHT22;31711;47.158;7.346;2023-05-20T09:25:59;15.60;99.90
45983;DHT22;31711;47.158;7.346;2023-05-20T09:28:28;15.90;99.90
45983;DHT22;31711;47.158;7.346;2023-05-20T09:31:00;16.10;99.90
45983;DHT22;31711;47.158;7.346;2023-05-20T09:33:28;16.30;99.90
45983;DHT22;31711;47.158;7.346;2023-05-20T09:36:04;16.10;99.90
45983;DHT22;31711;47.158;7.346;2023-05-20T09:38:35;15.80;99.90
45983;DHT22;31711;47.158;7.346;2023-05-20T09:41:09;15.50;99.90
45983;DHT22;31711;47.158;7.346;2023-05-20T09:43:39;15.60;99.90
45983;DHT22;31711;47.158;7.346;2023-05-20T09:46:06;15.80;99.90
45983;DHT22;31711;47.158;7.346;2023-05-20T09:48:36;16.00;99.90
45983;DHT22;31711;47.158;7.346;2023-05-20T09:51:04;16.30;99.90
45983;DHT22;31711;47.158;7.346;2023-05-20T09:53:30;16.50;99.90
45983;DHT22;31711;47.158;7.346;2023-05-20T09:55:57;16.30;99.90
45983;DHT22;31711;47.158;7.346;2023-05-20T09:58:23;16.10;99.90
45983;DHT22;31711;47.158;7.346;2023-05-20T10:00:50;15.90;99.90
45983;DHT22;31711;47.158;7.346;2023-05-20T10:03:17;15.60;99.90
45983;DHT22;31711;47.158;7.346;2023-05-20T10:06:23;15.60;99.90
45983;DHT22;31711;47.158;7.346;2023-05-20T10:20:26;17.30;99.90
45983;DHT22;31711;47.158;7.346;2023-05-20T10:22:56;17.50;99.90
45983;DHT22;31711;47.158;7.346;2023-05-20T10:25:27;17.50;99.90
45983;DHT22;31711;47.158;7.346;2023-05-20T10:28:07;16.90;99.90
45983;DHT22;31711;47.158;7.346;2023-05-20T10:30:33;16.50;99.90
45983;DHT22;31711;47.158;7.346;2023-05-20T10:33:03;16.70;99.90
45983;DHT22;31711;47.158;7.346;2023-05-20T10:35:30;17.40;99.90
45983;DHT22;31711;47.158;7.346;2023-05-20T10:38:08;17.60;99.90
45983;DHT22;31711;47.158;7.346;2023-05-20T10:40:35;18.00;99.90
45983;DHT22;31711;47.158;7.346;2023-05-20T10:43:32;18.30;99.90
45983;DHT22;31711;47.158;7.346;2023-05-20T10:45:57;18.50;99.90
45983;DHT22;31711;47.158;7.346;2023-05-20T10:50:54;18.20;99.90
45983;DHT22;31711;47.158;7.346;2023-05-20T10:53:22;17.80;99.90
45983;DHT22;31711;47.158;7.346;2023-05-20T10:55:51;17.90;99.90
45983;DHT22;31711;47.158;7.346;2023-05-20T10:58:17;18.20;99.90
45983;DHT22;31711;47.158;7.346;2023-05-20T11:00:52;18.30;99.90
45983;DHT22;31711;47.158;7.346;2023-05-20T11:03:21;17.90;99.90
45983;DHT22;31711;47.158;7.346;2023-05-20T11:05:47;17.60;99.90
45983;DHT22;31711;47.158;7.346;2023-05-20T11:08:14;17.60;99.90
45983;DHT22;31711;47.158;7.346;2023-05-20T11:10:41;17.70;99.90
45983;DHT22;31711;47.158;7.346;2023-05-20T11:13:07;17.70;99.90
45983;DHT22;31711;47.158;7.346;2023-05-20T11:15:34;17.60;99.90
45983;DHT22;31711;47.158;7.346;2023-05-20T11:18:04;17.70;99.90
45983;DHT22;31711;47.158;7.346;2023-05-20T11:20:30;17.30;99.90
45983;DHT22;31711;47.158;7.346;2023-05-20T11:23:00;17.60;99.90
45983;DHT22;31711;47.158;7.346;2023-05-20T11:25:27;17.70;99.90
45983;DHT22;31711;47.158;7.346;2023-05-20T11:27:53;17.90;99.90
45983;DHT22;31711;47.158;7.346;2023-05-20T11:30:20;18.30;99.90
45983;DHT22;31711;47.158;7.346;2023-05-20T11:32:59;18.30;99.90
45983;DHT22;31711;47.158;7.346;2023-05-20T11:35:27;18.10;99.90
45983;DHT22;31711;47.158;7.346;2023-05-20T11:38:12;18.50;99.90
45983;DHT22;31711;47.158;7.346;2023-05-20T11:40:46;18.20;99.90
45983;DHT22;31711;47.158;7.346;2023-05-20T11:43:13;18.10;99.90
45983;DHT22;31711;47.158;7.346;2023-05-20T11:45:43;18.40;99.90
45983;DHT22;31711;47.158;7.346;2023-05-20T11:48:10;18.90;99.90
45983;DHT22;31711;47.158;7.346;2023-05-20T11:50:44;19.00;99.90
45983;DHT22;31711;47.158;7.346;2023-05-20T11:53:14;19.30;99.90
45983;DHT22;31711;47.158;7.346;2023-05-20T11:55:53;19.40;99.90
45983;DHT22;31711;47.158;7.346;2023-05-20T11:58:30;19.30;99.90
45983;DHT22;31711;47.158;7.346;2023-05-20T12:00:56;19.30;99.90
45983;DHT22;31711;47.158;7.346;2023-05-20T12:03:22;19.50;99.90
45983;DHT22;31711;47.158;7.346;2023-05-20T12:05:49;19.30;99.90
45983;DHT22;31711;47.158;7.346;2023-05-20T12:08:16;18.70;99.90
45983;DHT22;31711;47.158;7.346;2023-05-20T12:10:42;18.50;99.90
45983;DHT22;31711;47.158;7.346;2023-05-20T12:13:10;18.60;99.90
45983;DHT22;31711;47.158;7.346;2023-05-20T12:15:38;18.40;99.90
45983;DHT22;31711;47.158;7.346;2023-05-20T12:18:05;18.60;99.90
45983;DHT22;31711;47.158;7.346;2023-05-20T12:20:31;18.50;99.90
45983;DHT22;31711;47.158;7.346;2023-05-20T12:22:59;18.60;99.90
45983;DHT22;31711;47.158;7.346;2023-05-20T12:25:26;18.60;99.90
45983;DHT22;31711;47.158;7.346;2023-05-20T12:27:52;18.70;99.90
45983;DHT22;31711;47.158;7.346;2023-05-20T12:30:19;19.00;99.90
45983;DHT22;31711;47.158;7.346;2023-05-20T12:32:47;18.80;99.90
45983;DHT22;31711;47.158;7.346;2023-05-20T12:35:14;18.40;99.90
45983;DHT22;31711;47.158;7.346;2023-05-20T12:37:41;18.20;99.90
45983;DHT22;31711;47.158;7.346;2023-05-20T12:40:09;18.40;99.90
45983;DHT22;31711;47.158;7.346;2023-05-20T12:42:36;18.40;99.90
45983;DHT22;31711;47.158;7.346;2023-05-20T12:45:03;18.30;99.90
45983;DHT22;31711;47.158;7.346;2023-05-20T12:47:32;18.30;99.90
45983;DHT22;31711;47.158;7.346;2023-05-20T12:49:59;18.30;99.90
45983;DHT22;31711;47.158;7.346;2023-05-20T12:52:25;18.20;99.90
45983;DHT22;31711;47.158;7.346;2023-05-20T12:54:55;18.20;99.90
45983;DHT22;31711;47.158;7.346;2023-05-20T12:57:22;18.30;99.90
45983;DHT22;31711;47.158;7.346;2023-05-20T12:59:48;18.50;99.90
45983;DHT22;31711;47.158;7.346;2023-05-20T13:02:14;18.50;99.90
45983;DHT22;31711;47.158;7.346;2023-05-20T13:04:40;18.60;99.90
45983;DHT22;31711;47.158;7.346;2023-05-20T13:07:06;18.60;99.90
45983;DHT22;31711;47.158;7.346;2023-05-20T13:09:32;18.90;99.90
45983;DHT22;31711;47.158;7.346;2023-05-20T13:12:00;19.10;99.90
45983;DHT22;31711;47.158;7.346;2023-05-20T13:14:26;19.00;99.90
45983;DHT22;31711;47.158;7.346;2023-05-20T13:16:52;19.20;99.90
45983;DHT22;31711;47.158;7.346;2023-05-20T13:19:22;19.00;99.90
45983;DHT22;31711;47.158;7.346;2023-05-20T13:21:49;18.80;99.90
45983;DHT22;31711;47.158;7.346;2023-05-20T13:24:16;18.50;99.90
45983;DHT22;31711;47.158;7.346;2023-05-20T13:26:42;18.70;99.90
45983;DHT22;31711;47.158;7.346;2023-05-20T13:29:11;19.00;99.90
45983;DHT22;31711;47.158;7.346;2023-05-20T13:31:37;19.10;99.90
45983;DHT22;31711;47.158;7.346;2023-05-20T13:34:03;19.10;99.90
45983;DHT22;31711;47.158;7.346;2023-05-20T13:36:29;18.90;99.90
45983;DHT22;31711;47.158;7.346;2023-05-20T13:38:55;18.80;99.90
45983;DHT22;31711;47.158;7.346;2023-05-20T13:41:22;18.70;99.90
45983;DHT22;31711;47.158;7.346;2023-05-20T13:43:49;18.60;99.90
45983;DHT22;31711;47.158;7.346;2023-05-20T13:46:16;18.80;99.90
45983;DHT22;31711;47.158;7.346;2023-05-20T13:48:42;18.50;99.90
45983;DHT22;31711;47.158;7.346;2023-05-20T13:51:08;18.30;99.90
45983;DHT22;31711;47.158;7.346;2023-05-20T13:53:34;18.20;99.90
45983;DHT22;31711;47.158;7.346;2023-05-20T13:56:00;18.50;99.90
45983;DHT22;31711;47.158;7.346;2023-05-20T13:58:26;18.50;99.90
45983;DHT22;31711;47.158;7.346;2023-05-20T14:00:52;18.30;99.90
45983;DHT22;31711;47.158;7.346;2023-05-20T14:03:19;18.20;99.90
45983;DHT22;31711;47.158;7.346;2023-05-20T14:05:45;18.10;99.90
45983;DHT22;31711;47.158;7.346;2023-05-20T14:08:11;18.00;99.90
45983;DHT22;31711;47.158;7.346;2023-05-20T14:10:37;18.00;99.90
45983;DHT22;31711;47.158;7.346;2023-05-20T14:13:03;18.20;99.90
45983;DHT22;31711;47.158;7.346;2023-05-20T14:15:29;18.20;99.90
45983;DHT22;31711;47.158;7.346;2023-05-20T14:17:56;18.40;99.90
45983;DHT22;31711;47.158;7.346;2023-05-20T14:20:23;18.30;99.90
45983;DHT22;31711;47.158;7.346;2023-05-20T14:22:51;18.30;99.90
45983;DHT22;31711;47.158;7.346;2023-05-20T14:25:17;18.30;99.90
45983;DHT22;31711;47.158;7.346;2023-05-20T14:27:43;18.30;99.90
45983;DHT22;31711;47.158;7.346;2023-05-20T14:30:10;18.20;99.90
45983;DHT22;31711;47.158;7.346;2023-05-20T14:32:36;18.00;99.90
45983;DHT22;31711;47.158;7.346;2023-05-20T14:35:03;18.00;99.90
45983;DHT22;31711;47.158;7.346;2023-05-20T14:37:29;18.00;99.90
45983;DHT22;31711;47.158;7.346;2023-05-20T14:39:55;17.90;99.90
45983;DHT22;31711;47.158;7.346;2023-05-20T14:42:21;17.90;99.90
45983;DHT22;31711;47.158;7.346;2023-05-20T14:44:47;17.90;99.90
45983;DHT22;31711;47.158;7.346;2023-05-20T14:47:13;17.90;99.90
45983;DHT22;31711;47.158;7.346;2023-05-20T14:49:44;18.00;99.90
45983;DHT22;31711;47.158;7.346;2023-05-20T14:52:11;18.00;99.90
45983;DHT22;31711;47.158;7.346;2023-05-20T14:54:37;18.10;99.90
45983;DHT22;31711;47.158;7.346;2023-05-20T14:57:03;18.00;99.90
45983;DHT22;31711;47.158;7.346;2023-05-20T14:59:31;18.20;99.90
45983;DHT22;31711;47.158;7.346;2023-05-20T15:01:57;18.20;99.90
45983;DHT22;31711;47.158;7.346;2023-05-20T15:04:24;18.00;99.90
45983;DHT22;31711;47.158;7.346;2023-05-20T15:06:50;18.00;99.90
45983;DHT22;31711;47.158;7.346;2023-05-20T15:09:16;18.30;99.90
45983;DHT22;31711;47.158;7.346;2023-05-20T15:11:43;18.50;99.90
45983;DHT22;31711;47.158;7.346;2023-05-20T15:14:09;18.40;99.90
45983;DHT22;31711;47.158;7.346;2023-05-20T15:16:35;18.50;99.90
45983;DHT22;31711;47.158;7.346;2023-05-20T15:19:01;18.70;99.90
45983;DHT22;31711;47.158;7.346;2023-05-20T15:21:27;18.60;99.90
45983;DHT22;31711;47.158;7.346;2023-05-20T15:23:53;18.80;99.90
45983;DHT22;31711;47.158;7.346;2023-05-20T15:26:19;18.80;99.90
45983;DHT22;31711;47.158;7.346;2023-05-20T15:28:46;18.70;99.90
45983;DHT22;31711;47.158;7.346;2023-05-20T15:31:12;18.70;99.90
45983;DHT22;31711;47.158;7.346;2023-05-20T15:33:38;18.70;99.90
45983;DHT22;31711;47.158;7.346;2023-05-20T15:36:04;18.70;99.90
45983;DHT22;31711;47.158;7.346;2023-05-20T15:38:30;18.50;99.90
45983;DHT22;31711;47.158;7.346;2023-05-20T15:40:56;18.60;99.90
45983;DHT22;31711;47.158;7.346;2023-05-20T15:43:22;18.40;99.90